Time;durP1;ratioP1;P1;durP2;ratioP2;P2;SDS_P1;SDS_P2;PMS_P1;PMS_P2;Temp;Humidity;BMP_temperature;BMP_pressure;BME280_temperature;BME280_humidity;BME280_pressure;Samples;Min_cycle;Max_cycle;Signal;HPM_P1;HPM_P2
2024/01/29 00:02:07;;;;;;;145.63;77.53;;;-1.20;7.80;;;;;;5056576;28;20048;-76
2024/01/29 00:04:36;;;;;;;145.13;77.85;;;-1.00;94.60;;;;;;5058346;28;20423;-78
2024/01/29 00:07:04;;;;;;;140.63;77.05;;;-1.00;1.00;;;;;;5058102;28;20049;-78
2024/01/29 00:09:31;;;;;;;141.63;75.82;;;-1.00;1.00;;;;;;5058060;28;20503;-77
2024/01/29 00:11:58;;;;;;;132.40;69.80;;;-1.00;99.90;;;;;;5072754;28;20069;-75
2024/01/29 00:14:26;;;;;;;128.05;69.97;;;-1.20;71.80;;;;;;5072159;28;20514;-78
2024/01/29 00:16:54;;;;;;;127.32;68.18;;;-1.20;1.00;;;;;;5058515;28;20065;-78
2024/01/29 00:19:21;;;;;;;139.02;73.30;;;-1.10;1.00;;;;;;5040450;28;20683;-76
2024/01/29 00:21:51;;;;;;;136.40;74.55;;;-1.10;88.80;;;;;;5057331;28;20040;-78
2024/01/29 00:24:18;;;;;;;142.80;75.78;;;-1.20;1.00;;;;;;5058495;28;20071;-77
2024/01/29 00:26:45;;;;;;;140.63;75.68;;;-1.30;1.00;;;;;;5057902;28;20043;-76
2024/01/29 00:29:12;;;;;;;161.80;82.03;;;-1.30;1.00;;;;;;5061210;28;20049;-77
2024/01/29 00:31:40;;;;;;;156.07;82.50;;;-1.30;1.00;;;;;;5062562;28;20503;-78
2024/01/29 00:34:07;;;;;;;152.07;75.38;;;-1.10;99.90;;;;;;5062534;28;20698;-76
2024/01/29 00:36:35;;;;;;;139.68;71.32;;;-1.10;1.00;;;;;;5065062;28;20063;-78
2024/01/29 00:39:08;;;;;;;162.80;83.50;;;-1.10;99.90;;;;;;5064279;28;20090;-78
2024/01/29 00:41:36;;;;;;;172.25;90.78;;;-1.20;99.90;;;;;;5064631;28;20062;-77
2024/01/29 00:44:03;;;;;;;166.18;85.85;;;-1.20;1.00;;;;;;5046389;28;20037;-76
2024/01/29 00:46:31;;;;;;;176.30;90.00;;;-1.40;1.00;;;;;;5060523;28;20140;-77
2024/01/29 00:48:58;;;;;;;176.40;90.43;;;-1.50;99.90;;;;;;5062594;28;20500;-77
2024/01/29 00:51:26;;;;;;;145.70;78.35;;;-1.50;1.00;;;;;;5061791;28;20044;-77
2024/01/29 00:53:54;;;;;;;144.13;80.15;;;-1.50;1.00;;;;;;5060120;28;20048;-77
2024/01/29 00:56:23;;;;;;;154.13;84.82;;;-1.60;99.90;;;;;;5062208;28;20056;-75
2024/01/29 00:58:50;;;;;;;142.45;78.95;;;-1.40;1.00;;;;;;5061473;28;20040;-76
2024/01/29 01:01:18;;;;;;;135.60;77.88;;;-1.50;1.00;;;;;;5061505;28;20068;-78
2024/01/29 01:03:45;;;;;;;148.40;80.75;;;-1.40;1.00;;;;;;5061310;28;20059;-76
2024/01/29 01:06:13;;;;;;;148.50;81.75;;;-1.50;99.90;;;;;;5061833;28;20514;-76
2024/01/29 01:08:40;;;;;;;156.43;84.25;;;-1.50;1.00;;;;;;5061692;28;20040;-77
2024/01/29 01:11:08;;;;;;;176.57;93.50;;;-1.50;1.00;;;;;;5043886;28;20059;-78
2024/01/29 01:13:37;;;;;;;190.43;98.53;;;-1.50;1.00;;;;;;5061226;28;20546;-78
2024/01/29 01:16:05;;;;;;;203.63;100.28;;;-1.50;1.00;;;;;;5061198;28;20075;-78
2024/01/29 01:18:33;;;;;;;197.43;101.00;;;-1.50;1.00;;;;;;5062097;28;20550;-78
2024/01/29 01:21:00;;;;;;;182.00;93.05;;;-1.50;15.10;;;;;;5061054;28;20594;-77
2024/01/29 01:23:28;;;;;;;206.25;105.43;;;-1.50;1.00;;;;;;5060430;28;20082;-77
2024/01/29 01:25:55;;;;;;;214.93;105.05;;;-1.50;99.90;;;;;;5043441;28;20094;-77
2024/01/29 01:28:22;;;;;;;190.02;103.18;;;-1.40;1.00;;;;;;5061526;28;20036;-75
2024/01/29 01:30:51;;;;;;;186.10;99.60;;;-1.40;1.00;;;;;;5060975;28;20041;-78
2024/01/29 01:33:19;;;;;;;180.05;97.75;;;-1.40;99.90;;;;;;5060767;28;20060;-78
2024/01/29 01:35:46;;;;;;;185.32;99.38;;;-1.50;1.00;;;;;;5061478;28;20051;-77
2024/01/29 01:38:14;;;;;;;179.30;95.43;;;-1.60;1.00;;;;;;5042499;28;20488;-77
2024/01/29 01:40:42;;;;;;;183.82;97.78;;;-1.60;1.00;;;;;;5061122;28;20047;-77
2024/01/29 01:43:16;;;;;;;172.90;92.72;;;-1.60;1.00;;;;;;5060443;28;20053;-77
2024/01/29 01:45:44;;;;;;;161.40;88.93;;;-1.50;1.00;;;;;;5061303;28;20048;-76
2024/01/29 01:48:13;;;;;;;177.25;94.40;;;-1.60;1.00;;;;;;5061225;28;20115;-75
2024/01/29 01:50:41;;;;;;;175.27;90.78;;;-1.60;99.90;;;;;;5041556;28;20457;-78
2024/01/29 01:53:09;;;;;;;175.38;90.22;;;-1.60;1.00;;;;;;5059903;28;20068;-77
2024/01/29 01:55:37;;;;;;;179.30;98.15;;;-1.60;1.00;;;;;;5061746;28;20049;-75
2024/01/29 01:58:06;;;;;;;206.32;105.75;;;-1.60;1.00;;;;;;5060028;28;20041;-79
2024/01/29 02:00:34;;;;;;;203.77;103.28;;;-1.60;99.90;;;;;;5061123;28;20103;-76
2024/01/29 02:03:02;;;;;;;201.98;106.55;;;-1.50;1.00;;;;;;5042415;28;20528;-77
2024/01/29 02:05:31;;;;;;;168.82;89.55;;;-1.60;1.00;;;;;;5060406;28;20547;-77
2024/01/29 02:07:59;;;;;;;140.18;74.95;;;-1.50;1.00;;;;;;5061576;28;20037;-77
2024/01/29 02:10:27;;;;;;;141.35;76.38;;;-1.50;1.00;;;;;;5060082;28;20117;-75
2024/01/29 02:12:55;;;;;;;144.27;80.13;;;-1.50;1.00;;;;;;5060445;28;20037;-78
2024/01/29 02:15:22;;;;;;;124.90;68.28;;;-1.50;99.90;;;;;;5067953;28;20048;-78
2024/01/29 02:17:50;;;;;;;141.73;76.55;;;-1.80;1.00;;;;;;5063919;28;20060;-76
2024/01/29 02:20:18;;;;;;;151.02;83.82;;;-1.80;99.90;;;;;;5080400;28;20070;-76
2024/01/29 02:22:46;;;;;;;159.70;86.97;;;-1.80;1.00;;;;;;5070570;28;20094;-76
2024/01/29 02:25:14;;;;;;;152.75;83.45;;;-1.90;1.00;;;;;;5058705;28;20064;-76
2024/01/29 02:27:41;;;;;;;151.48;83.05;;;-1.80;99.90;;;;;;5041493;28;20048;-77
2024/01/29 02:30:10;;;;;;;155.85;82.30;;;-1.90;1.00;;;;;;5060493;28;20109;-76
2024/01/29 02:32:37;;;;;;;134.00;75.63;;;-1.90;99.90;;;;;;5061012;28;20441;-78
2024/01/29 02:35:05;;;;;;;123.63;69.63;;;-1.90;1.00;;;;;;5058633;28;20044;-77
2024/01/29 02:37:34;;;;;;;128.85;67.97;;;-1.90;1.00;;;;;;5061286;28;20098;-77
2024/01/29 02:40:05;;;;;;;124.25;69.68;;;-2.00;1.00;;;;;;5060878;28;20123;-75
2024/01/29 02:42:33;;;;;;;118.32;64.13;;;-1.90;1.00;;;;;;5061606;28;20072;-77
2024/01/29 02:45:01;;;;;;;139.70;72.80;;;-1.90;99.90;;;;;;5060695;28;20061;-78
2024/01/29 02:47:28;;;;;;;106.32;63.20;;;-1.90;63.30;;;;;;5071748;28;20037;-77
2024/01/29 02:49:55;;;;;;;117.88;61.80;;;-1.90;1.00;;;;;;5067959;28;20041;-77
2024/01/29 02:52:23;;;;;;;98.65;53.47;;;-1.90;57.70;;;;;;5042929;28;20052;-79
2024/01/29 02:54:50;;;;;;;100.68;54.45;;;-2.00;1.00;;;;;;5041322;28;20396;-78
2024/01/29 02:57:23;;;;;;;98.03;55.15;;;-2.10;99.90;;;;;;5042799;28;20075;-77
2024/01/29 02:59:51;;;;;;;101.43;57.47;;;-2.10;99.90;;;;;;5062875;28;20064;-78
2024/01/29 03:02:18;;;;;;;112.90;56.78;;;-2.10;99.90;;;;;;5060887;28;20086;-76
2024/01/29 03:04:46;;;;;;;111.43;61.95;;;-2.10;99.90;;;;;;5058850;28;20123;-77
2024/01/29 03:07:13;;;;;;;111.28;60.40;;;-2.00;1.00;;;;;;5060018;28;20044;-78
2024/01/29 03:09:40;;;;;;;110.13;62.40;;;-2.10;95.90;;;;;;5059007;28;20497;-76
2024/01/29 03:12:08;;;;;;;124.70;65.75;;;-2.10;1.00;;;;;;5060309;28;20098;-77
2024/01/29 03:14:38;;;;;;;118.20;63.88;;;-2.10;34.20;;;;;;5059131;28;20129;-78
2024/01/29 03:17:06;;;;;;;98.75;53.45;;;-2.10;99.90;;;;;;5058295;28;20040;-76
2024/01/29 03:19:33;;;;;;;91.35;50.15;;;-2.20;1.00;;;;;;5059139;28;20045;-75
2024/01/29 03:22:00;;;;;;;94.88;51.60;;;-2.20;99.90;;;;;;5060758;28;20041;-78
2024/01/29 03:24:27;;;;;;;109.07;59.95;;;-2.20;1.00;;;;;;5064858;28;20044;-78
2024/01/29 03:26:55;;;;;;;103.18;55.67;;;-2.20;1.00;;;;;;5058798;28;20082;-76
2024/01/29 03:29:23;;;;;;;102.57;55.78;;;-2.20;99.90;;;;;;5061425;28;20041;-77
2024/01/29 03:31:51;;;;;;;95.85;55.85;;;-2.30;1.00;;;;;;5059344;28;20444;-77
2024/01/29 03:34:18;;;;;;;102.25;56.40;;;-2.30;1.00;;;;;;5059772;28;20568;-77
2024/01/29 03:36:47;;;;;;;106.22;57.65;;;-2.40;1.00;;;;;;5059093;28;20041;-78
2024/01/29 03:39:14;;;;;;;107.45;59.45;;;-2.40;1.00;;;;;;5059401;28;20135;-78
2024/01/29 03:41:42;;;;;;;114.30;60.88;;;-2.40;99.90;;;;;;5059665;28;20048;-76
2024/01/29 03:44:09;;;;;;;106.13;59.10;;;-2.30;19.80;;;;;;5083319;23;20066;-74
2024/01/29 03:46:36;;;;;;;113.82;58.58;;;-2.30;1.00;;;;;;5079295;28;20037;-73
2024/01/29 03:49:05;;;;;;;118.15;62.25;;;-2.30;1.00;;;;;;5060628;28;20411;-76
2024/01/29 03:51:33;;;;;;;123.47;60.72;;;-2.30;1.00;;;;;;5087364;28;20040;-73
2024/01/29 03:54:00;;;;;;;120.53;67.22;;;-2.30;1.00;;;;;;5090306;28;20043;-74
2024/01/29 03:56:27;;;;;;;114.07;63.22;;;-2.40;1.00;;;;;;5090558;28;20059;-75
2024/01/29 03:58:55;;;;;;;122.07;62.85;;;-2.40;1.00;;;;;;5090196;28;20483;-76
2024/01/29 04:01:31;;;;;;;118.18;63.33;;;-2.40;1.00;;;;;;5089212;28;20051;-75
2024/01/29 04:03:58;;;;;;;121.88;66.13;;;-2.50;1.00;;;;;;5092548;28;20032;-74
2024/01/29 04:06:27;;;;;;;108.68;63.35;;;-2.60;1.00;;;;;;5093997;28;20121;-74
2024/01/29 04:08:55;;;;;;;108.45;60.53;;;-2.60;99.90;;;;;;5094193;28;20498;-75
2024/01/29 04:11:22;;;;;;;105.82;57.65;;;-2.60;99.90;;;;;;5093414;28;20040;-75
2024/01/29 04:13:50;;;;;;;113.03;61.10;;;-2.60;1.00;;;;;;5093513;28;20502;-75
2024/01/29 04:16:17;;;;;;;106.53;59.53;;;-2.50;1.00;;;;;;5093690;28;20036;-74
2024/01/29 04:18:45;;;;;;;103.03;56.30;;;-2.40;1.00;;;;;;5093766;28;20479;-75
2024/01/29 04:21:13;;;;;;;102.03;58.15;;;-2.60;99.90;;;;;;5093983;28;20575;-75
2024/01/29 04:23:43;;;;;;;106.47;56.08;;;-2.60;1.00;;;;;;5094912;28;20049;-74
2024/01/29 04:26:10;;;;;;;116.45;59.25;;;-2.60;1.00;;;;;;5095463;28;20036;-74
2024/01/29 04:28:38;;;;;;;116.13;61.38;;;-2.70;1.00;;;;;;5094883;28;20534;-77
2024/01/29 04:31:06;;;;;;;117.28;59.13;;;-2.80;1.00;;;;;;5093976;28;20743;-75
2024/01/29 04:33:33;;;;;;;120.50;61.10;;;-2.80;99.90;;;;;;5095201;28;20462;-75
2024/01/29 04:36:01;;;;;;;110.30;58.17;;;-2.80;99.90;;;;;;5107447;28;20036;-74
2024/01/29 04:38:28;;;;;;;114.82;60.65;;;-2.60;99.90;;;;;;5092877;28;20544;-75
2024/01/29 04:40:57;;;;;;;122.90;61.17;;;-2.60;1.00;;;;;;5093902;28;20036;-75
2024/01/29 04:43:25;;;;;;;108.50;56.70;;;-2.60;1.00;;;;;;5093973;28;20079;-74
2024/01/29 04:45:52;;;;;;;103.35;52.90;;;-2.50;1.00;;;;;;5106884;28;20032;-75
2024/01/29 04:48:20;;;;;;;107.70;56.65;;;-2.50;1.00;;;;;;5114685;28;20040;-76
2024/01/29 04:50:48;;;;;;;110.97;55.60;;;-2.60;1.00;;;;;;5114140;28;20053;-76
2024/01/29 04:53:15;;;;;;;114.88;59.05;;;-2.70;1.00;;;;;;5075377;28;20070;-74
2024/01/29 04:55:43;;;;;;;111.43;59.13;;;-2.80;1.00;;;;;;5093782;28;20132;-76
2024/01/29 04:58:13;;;;;;;110.80;57.40;;;-2.80;1.00;;;;;;5076127;28;20055;-74
2024/01/29 05:00:41;;;;;;;107.47;56.10;;;-2.90;1.00;;;;;;5093843;28;20032;-74
2024/01/29 05:03:08;;;;;;;106.20;58.00;;;-2.90;99.90;;;;;;5094508;28;20036;-75
2024/01/29 05:05:35;;;;;;;116.63;60.72;;;-2.90;1.00;;;;;;5094216;28;20522;-74
2024/01/29 05:08:03;;;;;;;124.22;63.55;;;-2.90;1.00;;;;;;5094365;28;20075;-74
2024/01/29 05:10:30;;;;;;;123.78;63.88;;;-2.80;1.00;;;;;;5093446;28;20046;-74
2024/01/29 05:12:58;;;;;;;159.85;88.95;;;-2.70;1.00;;;;;;5098744;28;20356;-74
2024/01/29 05:15:27;;;;;;;144.57;75.35;;;-2.80;1.00;;;;;;5092816;28;20044;-76
2024/01/29 05:17:55;;;;;;;133.95;72.68;;;-2.80;99.90;;;;;;5093686;28;20151;-75
2024/01/29 05:20:22;;;;;;;137.82;73.78;;;-2.90;40.10;;;;;;5092402;28;20036;-75
2024/01/29 05:22:50;;;;;;;130.38;70.70;;;-2.90;99.90;;;;;;5093961;28;20407;-74
2024/01/29 05:25:17;;;;;;;120.53;66.85;;;-2.90;1.00;;;;;;5093203;28;20032;-75
2024/01/29 05:27:45;;;;;;;137.50;73.10;;;-2.90;1.00;;;;;;5093201;28;20155;-74
2024/01/29 05:30:13;;;;;;;123.55;67.95;;;-2.90;18.20;;;;;;5092844;28;20039;-74
2024/01/29 05:32:41;;;;;;;110.95;61.28;;;-2.80;55.50;;;;;;5096138;28;20036;-76
2024/01/29 05:35:10;;;;;;;102.47;57.47;;;-2.70;1.00;;;;;;5097017;28;20048;-74
2024/01/29 05:37:37;;;;;;;101.43;55.83;;;-2.70;1.00;;;;;;5096903;28;20105;-74
2024/01/29 05:40:07;;;;;;;108.63;59.28;;;-2.80;1.00;;;;;;5096539;28;20036;-76
2024/01/29 05:42:34;;;;;;;112.50;63.17;;;-2.70;1.00;;;;;;5095802;28;20099;-74
2024/01/29 05:45:02;;;;;;;112.22;62.25;;;-2.90;99.90;;;;;;5104825;28;20040;-75
2024/01/29 05:47:29;;;;;;;119.60;67.55;;;-3.00;1.00;;;;;;5106041;28;20036;-74
2024/01/29 05:49:59;;;;;;;120.57;66.13;;;-3.10;1.00;;;;;;5097111;28;20040;-74
2024/01/29 05:52:26;;;;;;;127.00;70.25;;;-2.90;99.90;;;;;;5093010;28;20036;-75
2024/01/29 05:54:53;;;;;;;130.32;73.03;;;-2.90;1.00;;;;;;5075540;28;20058;-75
2024/01/29 05:57:21;;;;;;;136.20;75.30;;;-2.90;1.00;;;;;;5075512;28;20060;-76
2024/01/29 05:59:48;;;;;;;128.45;73.18;;;-3.00;99.90;;;;;;5093275;28;20043;-75
2024/01/29 06:02:15;;;;;;;139.52;75.72;;;-3.00;99.90;;;;;;5093445;28;20040;-74
2024/01/29 06:04:43;;;;;;;147.23;78.18;;;-3.00;1.00;;;;;;5092276;28;20036;-74
2024/01/29 06:07:12;;;;;;;137.85;73.78;;;-3.00;1.00;;;;;;5091429;28;20059;-74
2024/01/29 06:09:39;;;;;;;141.77;76.65;;;-3.00;1.00;;;;;;5093278;28;20058;-74
2024/01/29 06:12:07;;;;;;;128.60;71.75;;;-3.00;1.00;;;;;;5091647;28;20032;-76
2024/01/29 06:14:34;;;;;;;137.75;74.47;;;-3.00;84.20;;;;;;5096190;28;20048;-75
2024/01/29 06:17:01;;;;;;;146.70;79.78;;;-3.10;99.90;;;;;;5097997;28;20044;-76
2024/01/29 06:19:30;;;;;;;151.60;78.75;;;-2.90;1.00;;;;;;5099136;28;20040;-76
2024/01/29 06:21:57;;;;;;;152.57;83.13;;;-2.90;99.90;;;;;;5094774;28;20038;-74
2024/01/29 06:24:26;;;;;;;163.50;84.47;;;-2.90;99.90;;;;;;5081772;28;20047;-74
2024/01/29 06:26:53;;;;;;;165.75;88.63;;;-2.90;1.00;;;;;;5094954;28;20059;-73
2024/01/29 06:29:21;;;;;;;186.73;100.18;;;-3.00;1.00;;;;;;5094330;28;20664;-74
2024/01/29 06:31:48;;;;;;;193.98;106.50;;;-2.80;99.90;;;;;;5074739;28;20043;-76
2024/01/29 06:34:16;;;;;;;206.05;119.35;;;-2.80;1.00;;;;;;5092602;28;20042;-74
2024/01/29 06:36:43;;;;;;;229.05;122.15;;;-2.60;1.00;;;;;;5096903;28;20145;-75
2024/01/29 06:39:11;;;;;;;242.82;124.63;;;-2.60;1.00;;;;;;5101400;28;20610;-74
2024/01/29 06:41:40;;;;;;;242.90;125.45;;;-2.60;1.00;;;;;;5078338;28;20040;-76
2024/01/29 06:44:10;;;;;;;276.40;145.63;;;-2.70;99.90;;;;;;5097758;28;20074;-76
2024/01/29 06:46:37;;;;;;;278.42;140.82;;;-2.70;1.00;;;;;;5100404;28;20073;-75
2024/01/29 06:49:04;;;;;;;242.00;124.43;;;-2.50;1.00;;;;;;5099484;28;20044;-74
2024/01/29 06:51:32;;;;;;;251.90;129.82;;;-2.50;1.00;;;;;;5098043;28;20036;-74
2024/01/29 06:54:03;;;;;;;253.57;130.30;;;-2.60;1.00;;;;;;5091650;28;20052;-74
2024/01/29 06:56:31;;;;;;;250.57;130.70;;;-2.40;99.90;;;;;;5093230;28;20028;-75
2024/01/29 06:59:01;;;;;;;255.02;130.98;;;-2.30;99.90;;;;;;5092197;28;20097;-75
2024/01/29 07:01:32;;;;;;;237.55;123.53;;;-2.10;1.00;;;;;;5072890;28;20040;-74
2024/01/29 07:04:01;;;;;;;250.57;136.43;;;-1.90;99.90;;;;;;5091125;28;20089;-75
2024/01/29 07:06:29;;;;;;;247.27;132.10;;;-1.80;1.00;;;;;;5091891;28;20040;-75
2024/01/29 07:08:56;;;;;;;248.90;130.85;;;-1.60;1.00;;;;;;5091547;28;20048;-74
2024/01/29 07:11:24;;;;;;;239.60;127.85;;;-1.40;99.90;;;;;;5075233;28;20696;-76
2024/01/29 07:13:51;;;;;;;243.25;131.57;;;-1.20;99.90;;;;;;5096943;28;20041;-75
2024/01/29 07:16:20;;;;;;;257.00;135.10;;;-1.20;98.30;;;;;;5097677;28;20067;-75
2024/01/29 07:18:48;;;;;;;240.43;133.68;;;-1.00;1.00;;;;;;5096430;28;20044;-76
2024/01/29 07:21:15;;;;;;;236.40;125.68;;;-0.90;1.00;;;;;;5090428;28;20376;-75
2024/01/29 07:23:43;;;;;;;197.00;108.07;;;-0.80;1.00;;;;;;5090936;28;20139;-73
2024/01/29 07:26:10;;;;;;;193.98;109.47;;;-0.70;1.00;;;;;;5072548;28;20384;-74
2024/01/29 07:28:37;;;;;;;173.35;93.05;;;-0.60;1.00;;;;;;5091327;28;20071;-75
2024/01/29 07:31:05;;;;;;;190.13;104.75;;;-0.40;1.00;;;;;;5090408;28;20048;-75
2024/01/29 07:33:34;;;;;;;213.13;117.78;;;-0.10;1.00;;;;;;5092022;28;20039;-74
2024/01/29 07:36:02;;;;;;;199.02;112.15;;;-0.20;1.00;;;;;;5090497;28;20391;-77
2024/01/29 07:38:30;;;;;;;195.80;108.55;;;-0.30;1.00;;;;;;5091751;28;20094;-74
2024/01/29 07:40:57;;;;;;;191.75;103.55;;;-0.30;1.00;;;;;;5091704;28;20040;-76
2024/01/29 07:43:25;;;;;;;179.77;99.35;;;-0.50;1.00;;;;;;5091640;28;20070;-75
2024/01/29 07:45:52;;;;;;;210.73;120.65;;;-0.60;1.00;;;;;;5093813;28;20051;-75
2024/01/29 07:48:21;;;;;;;222.32;123.93;;;-0.50;1.00;;;;;;5099150;28;20047;-75
2024/01/29 07:50:50;;;;;;;207.32;116.90;;;-0.40;1.00;;;;;;5095602;28;20063;-75
2024/01/29 07:53:17;;;;;;;206.95;115.70;;;-0.20;99.90;;;;;;5099477;28;20044;-77
2024/01/29 07:55:45;;;;;;;217.50;122.07;;;0.10;51.80;;;;;;5104937;28;20111;-75
2024/01/29 07:58:12;;;;;;;211.70;119.32;;;0.20;1.00;;;;;;5108358;28;20044;-77
2024/01/29 08:00:40;;;;;;;223.27;125.15;;;0.20;1.00;;;;;;5107498;28;20036;-76
2024/01/29 08:03:07;;;;;;;219.82;125.10;;;0.30;1.00;;;;;;5092261;28;20063;-75
2024/01/29 08:05:36;;;;;;;225.05;123.80;;;0.60;1.00;;;;;;5091555;28;20434;-76
2024/01/29 08:08:05;;;;;;;228.73;123.95;;;0.70;1.00;;;;;;5072429;28;20163;-75
2024/01/29 08:10:34;;;;;;;199.43;116.28;;;0.80;1.00;;;;;;5090474;28;20149;-76
2024/01/29 08:13:02;;;;;;;207.05;115.20;;;0.80;1.00;;;;;;5091074;28;20151;-75
2024/01/29 08:15:29;;;;;;;190.10;106.45;;;1.10;1.00;;;;;;5091593;28;20068;-74
2024/01/29 08:17:57;;;;;;;188.32;106.90;;;1.20;1.00;;;;;;5073204;28;20044;-76
2024/01/29 08:20:24;;;;;;;173.88;100.25;;;1.60;1.00;;;;;;5090805;28;20044;-76
2024/01/29 08:22:52;;;;;;;155.82;91.10;;;1.70;99.90;;;;;;5090499;28;20051;-76
2024/01/29 08:25:22;;;;;;;158.23;91.43;;;1.70;99.90;;;;;;5091383;28;20491;-76
2024/01/29 08:27:49;;;;;;;145.35;87.25;;;1.70;1.00;;;;;;5091080;28;20044;-76
2024/01/29 08:30:17;;;;;;;158.25;88.05;;;1.70;1.00;;;;;;5092476;28;20032;-77
2024/01/29 08:32:47;;;;;;;151.20;87.90;;;1.70;1.00;;;;;;5092582;28;20047;-76
2024/01/29 08:35:19;;;;;;;157.57;89.13;;;1.70;1.00;;;;;;5091319;28;20074;-78
2024/01/29 08:38:04;;;;;;;157.70;89.43;;;1.80;1.00;;;;;;5091097;28;20067;-76
2024/01/29 08:40:36;;;;;;;133.35;77.65;;;1.80;1.00;;;;;;5071761;28;20056;-76
2024/01/29 08:43:05;;;;;;;140.82;81.32;;;1.90;1.00;;;;;;5090717;28;20080;-77
2024/01/29 08:45:32;;;;;;;137.70;81.13;;;1.90;1.00;;;;;;5072454;28;20051;-79
2024/01/29 08:48:00;;;;;;;123.43;74.57;;;2.00;16.80;;;;;;5073452;28;20052;-78
2024/01/29 08:50:28;;;;;;;136.70;76.03;;;2.00;1.00;;;;;;5074848;28;20047;-75
2024/01/29 08:52:55;;;;;;;125.75;71.72;;;2.00;1.00;;;;;;5075604;28;20139;-75
2024/01/29 08:55:24;;;;;;;128.38;72.07;;;2.10;1.00;;;;;;5077361;28;20352;-76
2024/01/29 08:57:53;;;;;;;126.45;71.13;;;2.20;9.70;;;;;;5098437;28;20133;-75
2024/01/29 09:00:21;;;;;;;128.57;71.13;;;2.40;1.00;;;;;;5099897;28;20514;-75
2024/01/29 09:02:50;;;;;;;134.73;70.97;;;2.40;1.00;;;;;;5094993;28;20131;-76
2024/01/29 09:05:17;;;;;;;131.88;72.68;;;2.40;71.90;;;;;;5075247;28;20105;-76
2024/01/29 09:07:45;;;;;;;135.20;74.50;;;2.50;8.90;;;;;;5093738;28;20032;-75
2024/01/29 09:10:12;;;;;;;130.23;72.00;;;2.60;92.80;;;;;;5092808;28;20036;-75
2024/01/29 09:12:40;;;;;;;142.55;76.78;;;2.80;1.00;;;;;;5093012;28;20043;-75
2024/01/29 09:15:10;;;;;;;161.00;84.68;;;3.00;1.00;;;;;;5075465;28;20036;-75
2024/01/29 09:17:37;;;;;;;168.95;86.03;;;3.20;1.00;;;;;;5093347;28;20066;-75
2024/01/29 09:20:07;;;;;;;158.48;80.03;;;3.30;1.00;;;;;;5092698;28;20575;-74
2024/01/29 09:22:41;;;;;;;147.73;77.55;;;3.40;1.00;;;;;;5092830;28;20215;-76
2024/01/29 09:25:09;;;;;;;130.80;69.55;;;3.50;1.00;;;;;;5094280;28;20046;-75
2024/01/29 09:27:36;;;;;;;131.20;69.80;;;3.60;1.00;;;;;;5099908;27;20055;-75
2024/01/29 09:30:05;;;;;;;119.55;66.93;;;3.70;1.00;;;;;;5115139;28;20055;-75
2024/01/29 09:32:34;;;;;;;128.32;67.97;;;3.80;1.00;;;;;;5105306;27;20552;-75
2024/01/29 09:35:01;;;;;;;124.40;67.05;;;4.00;99.90;;;;;;5093709;28;20040;-75
2024/01/29 09:37:29;;;;;;;116.78;63.80;;;4.10;99.90;;;;;;5092662;28;20040;-75
2024/01/29 09:39:56;;;;;;;105.30;58.50;;;4.30;99.90;;;;;;5092830;28;20097;-75
2024/01/29 09:42:27;;;;;;;107.43;58.33;;;4.40;99.90;;;;;;5087499;28;20036;-75
2024/01/29 09:45:06;;;;;;;89.78;51.78;;;4.60;55.70;;;;;;5090250;28;20070;-74
2024/01/29 09:47:45;;;;;;;99.18;54.00;;;4.70;8.50;;;;;;5093193;28;20051;-73
2024/01/29 09:50:13;;;;;;;98.78;52.90;;;4.80;1.00;;;;;;5076616;28;20157;-76
2024/01/29 09:52:41;;;;;;;100.60;55.08;;;5.00;1.00;;;;;;5095540;28;20040;-74
2024/01/29 09:55:11;;;;;;;99.78;53.90;;;5.10;1.00;;;;;;5079303;28;20063;-74
2024/01/29 09:57:39;;;;;;;98.68;54.67;;;5.10;1.00;;;;;;5111743;28;20044;-74
2024/01/29 10:00:08;;;;;;;94.53;52.72;;;5.30;1.00;;;;;;5107748;28;20079;-75
2024/01/29 10:02:36;;;;;;;101.20;53.60;;;5.40;1.00;;;;;;5097404;28;20071;-75
2024/01/29 10:05:11;;;;;;;102.65;55.65;;;5.50;1.00;;;;;;5094262;28;20040;-75
2024/01/29 10:07:39;;;;;;;100.18;50.17;;;5.60;1.00;;;;;;5104284;28;20062;-74
2024/01/29 10:10:08;;;;;;;98.40;52.50;;;5.70;1.00;;;;;;5108454;28;20043;-75
2024/01/29 10:12:36;;;;;;;90.93;49.95;;;5.80;1.00;;;;;;5111810;28;20051;-75
2024/01/29 10:15:03;;;;;;;98.97;50.72;;;5.90;1.00;;;;;;5111041;28;20054;-74
2024/01/29 10:17:32;;;;;;;100.22;50.90;;;6.10;1.00;;;;;;5109499;28;20024;-75
2024/01/29 10:19:59;;;;;;;74.47;40.85;;;6.20;1.00;;;;;;5082147;28;20047;-75
2024/01/29 10:22:28;;;;;;;73.40;40.60;;;6.30;1.00;;;;;;5092557;28;20093;-75
2024/01/29 10:25:03;;;;;;;79.80;40.28;;;6.40;1.00;;;;;;5091125;28;20081;-74
2024/01/29 10:27:31;;;;;;;66.70;35.28;;;6.50;1.00;;;;;;5092274;28;20043;-73
2024/01/29 10:29:59;;;;;;;66.65;33.88;;;6.60;1.00;;;;;;5091690;28;20051;-73
2024/01/29 10:32:26;;;;;;;58.45;33.78;;;6.70;1.00;;;;;;5093616;28;20044;-74
2024/01/29 10:34:54;;;;;;;50.50;30.80;;;6.90;1.00;;;;;;5074504;28;20036;-76
2024/01/29 10:37:22;;;;;;;41.03;25.10;;;7.10;1.00;;;;;;5096166;28;20054;-74
2024/01/29 10:39:54;;;;;;;44.53;23.05;;;7.20;1.00;;;;;;5093111;28;20487;-74
2024/01/29 10:42:23;;;;;;;44.13;25.33;;;7.40;1.00;;;;;;5077485;28;20055;-75
2024/01/29 10:44:53;;;;;;;40.20;24.48;;;7.50;1.00;;;;;;5072985;28;20063;-75
2024/01/29 10:47:38;;;;;;;47.88;24.17;;;7.60;1.00;;;;;;5073163;28;20037;-73
2024/01/29 10:50:07;;;;;;;44.25;24.00;;;7.70;1.00;;;;;;5071832;28;20504;-73
2024/01/29 10:52:34;;;;;;;45.33;23.30;;;7.90;1.00;;;;;;5073822;28;20483;-75
2024/01/29 10:55:05;;;;;;;43.03;22.05;;;7.90;1.00;;;;;;5071232;28;20465;-74
2024/01/29 10:57:35;;;;;;;40.13;20.88;;;8.10;1.00;;;;;;5072661;28;20502;-74
2024/01/29 11:00:04;;;;;;;37.45;21.35;;;8.20;1.00;;;;;;5070809;28;20079;-75
2024/01/29 11:02:32;;;;;;;36.92;20.45;;;8.20;1.00;;;;;;5071485;28;20062;-73
2024/01/29 11:04:59;;;;;;;35.58;21.60;;;8.20;1.00;;;;;;5071839;28;20037;-74
2024/01/29 11:07:29;;;;;;;38.80;21.50;;;8.20;1.00;;;;;;5071513;28;20041;-74
2024/01/29 11:10:03;;;;;;;37.97;20.45;;;8.40;1.00;;;;;;5071370;28;20056;-73
2024/01/29 11:12:34;;;;;;;38.25;19.38;;;8.40;1.00;;;;;;5074275;28;20116;-75
2024/01/29 11:15:03;;;;;;;34.20;17.85;;;8.50;1.00;;;;;;5089873;28;20033;-76
2024/01/29 11:17:31;;;;;;;32.10;17.15;;;8.30;1.00;;;;;;5088875;28;20041;-74
2024/01/29 11:20:02;;;;;;;25.70;16.23;;;8.40;1.00;;;;;;5092311;28;20024;-75
2024/01/29 11:22:37;;;;;;;25.17;14.05;;;8.60;1.00;;;;;;5086052;28;20051;-74
2024/01/29 11:25:09;;;;;;;21.90;12.27;;;8.70;1.00;;;;;;5091003;28;20040;-76
2024/01/29 11:27:42;;;;;;;23.17;13.05;;;8.40;1.00;;;;;;5084264;28;20499;-76
2024/01/29 11:30:17;;;;;;;25.48;13.95;;;8.30;1.00;;;;;;5071567;28;20040;-74
2024/01/29 11:32:45;;;;;;;27.42;14.65;;;8.30;1.00;;;;;;5079897;28;20067;-75
2024/01/29 11:35:15;;;;;;;30.05;15.05;;;8.30;1.00;;;;;;5073143;28;20098;-77
2024/01/29 11:37:50;;;;;;;27.63;15.82;;;8.30;1.00;;;;;;5069806;28;20047;-77
2024/01/29 11:40:33;;;;;;;34.72;17.85;;;8.40;1.00;;;;;;5071347;28;20484;-75
2024/01/29 11:43:04;;;;;;;30.20;16.90;;;8.40;1.00;;;;;;5076914;28;20402;-74
2024/01/29 11:45:32;;;;;;;31.70;18.38;;;8.60;1.00;;;;;;5090892;28;20102;-74
2024/01/29 11:48:00;;;;;;;31.30;17.42;;;8.70;1.00;;;;;;5091576;28;20068;-74
2024/01/29 11:50:27;;;;;;;32.92;16.65;;;8.70;1.00;;;;;;5090956;28;20060;-75
2024/01/29 11:52:55;;;;;;;32.05;16.35;;;8.60;1.00;;;;;;5089686;28;20040;-75
2024/01/29 11:55:22;;;;;;;27.88;13.48;;;8.40;1.00;;;;;;5100559;28;20036;-75
2024/01/29 11:57:53;;;;;;;23.10;12.00;;;8.10;1.00;;;;;;5102093;28;20113;-75
2024/01/29 12:00:21;;;;;;;21.63;12.80;;;7.90;1.00;;;;;;5072030;28;20135;-74
2024/01/29 12:02:50;;;;;;;24.27;13.82;;;7.70;1.00;;;;;;5091483;28;20131;-74
2024/01/29 12:05:19;;;;;;;20.52;11.82;;;7.60;1.00;;;;;;5091188;28;20105;-75
2024/01/29 12:07:48;;;;;;;25.25;13.32;;;7.70;1.00;;;;;;5090843;28;20109;-75
2024/01/29 12:10:16;;;;;;;24.75;14.00;;;7.90;1.00;;;;;;5089518;28;20058;-74
2024/01/29 12:12:43;;;;;;;22.88;12.70;;;8.10;1.00;;;;;;5091484;28;20161;-75
2024/01/29 12:15:12;;;;;;;25.95;13.07;;;8.20;1.00;;;;;;5090994;28;20101;-75
2024/01/29 12:17:44;;;;;;;22.33;12.85;;;8.30;1.00;;;;;;5091308;28;20090;-74
2024/01/29 12:20:12;;;;;;;22.92;12.77;;;8.50;1.00;;;;;;5090021;28;20048;-77
2024/01/29 12:22:40;;;;;;;20.80;12.27;;;8.60;1.00;;;;;;5091718;28;20048;-75
2024/01/29 12:25:11;;;;;;;23.05;11.77;;;8.60;1.00;;;;;;5075954;28;20352;-75
2024/01/29 12:27:39;;;;;;;24.90;12.77;;;8.60;1.00;;;;;;5094657;28;20044;-74
2024/01/29 12:30:11;;;;;;;21.95;12.82;;;8.50;1.00;;;;;;5094864;28;20066;-75
2024/01/29 12:32:39;;;;;;;26.75;15.05;;;8.40;1.00;;;;;;5094299;28;20047;-74
2024/01/29 12:35:25;;;;;;;23.52;12.95;;;8.50;1.00;;;;;;5075791;28;20502;-75